Time;durP1;ratioP1;P1;durP2;ratioP2;P2;SDS_P1;SDS_P2;PMS_P1;PMS_P2;Temp;Humidity;BMP_temperature;BMP_pressure;BME280_temperature;BME280_humidity;BME280_pressure;Samples;Min_cycle;Max_cycle;Signal;HPM_P1;HPM_P2
2022/11/19 00:00:48;;;;;;;;;14.67;12.00;;;;;;;;4942655;28;45709;-65
2022/11/19 00:03:14;;;;;;;;;14.00;10.33;;;;;;;;4930329;28;45323;-65
2022/11/19 00:05:40;;;;;;;;;9.67;8.33;;;;;;;;4925644;28;45354;-65
2022/11/19 00:08:06;;;;;;;;;12.00;10.67;;;;;;;;4924624;28;45699;-63
2022/11/19 00:10:32;;;;;;;;;14.33;8.00;;;;;;;;4932084;28;45289;-65
2022/11/19 00:12:57;;;;;;;;;9.67;8.33;;;;;;;;4919959;28;45607;-64
2022/11/19 00:15:23;;;;;;;;;10.33;9.00;;;;;;;;4934920;28;45784;-67
2022/11/19 00:17:48;;;;;;;;;11.33;10.00;;;;;;;;4935576;28;45790;-65
2022/11/19 00:20:13;;;;;;;;;10.00;8.00;;;;;;;;4934420;28;45642;-66
2022/11/19 00:22:40;;;;;;;;;7.67;6.00;;;;;;;;4948044;23;45803;-77
2022/11/19 00:25:06;;;;;;;;;8.33;7.33;;;;;;;;4900415;28;45785;-76
2022/11/19 00:27:31;;;;;;;;;8.33;8.33;;;;;;;;4918127;28;47457;-76
2022/11/19 00:29:57;;;;;;;;;12.33;7.67;;;;;;;;4934977;28;45518;-77
2022/11/19 00:32:23;;;;;;;;;10.33;7.67;;;;;;;;4942303;28;45496;-78
2022/11/19 00:34:48;;;;;;;;;9.00;9.00;;;;;;;;4920558;28;45280;-79
2022/11/19 00:37:13;;;;;;;;;13.00;9.33;;;;;;;;4935189;28;46485;-78
2022/11/19 00:39:39;;;;;;;;;13.00;9.00;;;;;;;;4901568;28;45774;-76
2022/11/19 00:42:04;;;;;;;;;8.00;7.67;;;;;;;;4934294;28;45402;-77
2022/11/19 00:44:29;;;;;;;;;13.00;10.00;;;;;;;;4922251;28;45757;-78
2022/11/19 00:46:54;;;;;;;;;7.67;7.67;;;;;;;;4924158;28;45412;-78
2022/11/19 00:49:20;;;;;;;;;11.67;10.67;;;;;;;;4918476;28;45749;-76
2022/11/19 00:51:45;;;;;;;;;9.67;8.67;;;;;;;;4914556;28;45801;-77
2022/11/19 00:54:10;;;;;;;;;8.00;8.00;;;;;;;;4931374;28;45695;-75
2022/11/19 00:56:36;;;;;;;;;9.33;9.33;;;;;;;;4934836;28;45888;-77
2022/11/19 00:59:01;;;;;;;;;16.00;11.33;;;;;;;;4930172;28;45326;-76
2022/11/19 01:01:26;;;;;;;;;10.33;8.67;;;;;;;;4943637;28;45772;-75
2022/11/19 01:03:52;;;;;;;;;14.00;10.67;;;;;;;;4944935;28;46992;-77
2022/11/19 01:06:18;;;;;;;;;7.00;6.67;;;;;;;;4935446;28;45865;-76
2022/11/19 01:08:44;;;;;;;;;13.00;9.67;;;;;;;;4932218;28;45860;-75
2022/11/19 01:11:13;;;;;;;;;9.33;6.33;;;;;;;;4938261;28;45515;-74
2022/11/19 01:13:39;;;;;;;;;10.33;8.33;;;;;;;;4932716;28;46013;-77
2022/11/19 01:16:09;;;;;;;;;5.00;5.00;;;;;;;;4930195;28;46133;-77
2022/11/19 01:18:35;;;;;;;;;7.00;6.00;;;;;;;;4934717;28;45688;-77
2022/11/19 01:21:00;;;;;;;;;12.33;10.00;;;;;;;;4923541;28;45716;-77
2022/11/19 01:23:25;;;;;;;;;13.33;9.33;;;;;;;;4936328;28;45728;-74
2022/11/19 01:25:51;;;;;;;;;8.33;6.67;;;;;;;;4939660;28;47137;-77
2022/11/19 01:28:16;;;;;;;;;12.00;9.67;;;;;;;;4940809;28;45458;-77
2022/11/19 01:30:42;;;;;;;;;9.67;8.00;;;;;;;;4937741;28;45455;-77
2022/11/19 01:33:08;;;;;;;;;7.33;7.00;;;;;;;;4927178;28;45854;-76
2022/11/19 01:35:33;;;;;;;;;7.67;7.00;;;;;;;;4922103;28;46365;-78
2022/11/19 01:37:59;;;;;;;;;8.00;6.33;;;;;;;;4933739;28;45453;-77
2022/11/19 01:40:25;;;;;;;;;12.67;9.00;;;;;;;;4916291;28;45527;-77
2022/11/19 01:42:52;;;;;;;;;9.67;9.67;;;;;;;;4926313;28;45383;-78
2022/11/19 01:45:30;;;;;;;;;10.00;7.67;;;;;;;;4923829;28;46483;-78
2022/11/19 01:48:01;;;;;;;;;10.67;8.00;;;;;;;;4932947;28;45470;-78
2022/11/19 01:50:29;;;;;;;;;8.00;6.67;;;;;;;;4934435;28;45378;-80
2022/11/19 01:52:55;;;;;;;;;9.00;6.00;;;;;;;;4933555;28;45877;-79
2022/11/19 01:55:20;;;;;;;;;7.00;7.00;;;;;;;;4915248;28;48122;-79
2022/11/19 01:57:58;;;;;;;;;12.00;8.67;;;;;;;;5101117;27;45369;-69
2022/11/19 02:00:24;;;;;;;;;8.33;7.00;;;;;;;;5097805;27;45580;-66
2022/11/19 02:02:49;;;;;;;;;7.00;7.00;;;;;;;;5096101;27;45398;-64
2022/11/19 02:05:15;;;;;;;;;14.67;8.00;;;;;;;;5092275;27;45374;-65
2022/11/19 02:07:42;;;;;;;;;9.33;7.00;;;;;;;;5089887;27;45387;-63
2022/11/19 02:10:08;;;;;;;;;9.00;7.00;;;;;;;;5089648;27;45411;-65
2022/11/19 02:12:51;;;;;;;;;6.00;6.00;;;;;;;;5092655;27;45701;-63
2022/11/19 02:15:32;;;;;;;;;8.67;7.67;;;;;;;;5106330;27;45777;-64
2022/11/19 02:18:00;;;;;;;;;13.33;9.00;;;;;;;;5109309;27;45450;-64
2022/11/19 02:20:44;;;;;;;;;8.67;7.00;;;;;;;;5108846;27;45393;-64
2022/11/19 02:23:15;;;;;;;;;7.00;6.00;;;;;;;;5108619;27;46011;-64
2022/11/19 02:25:49;;;;;;;;;13.00;12.00;;;;;;;;5108723;27;45616;-63
2022/11/19 02:28:23;;;;;;;;;6.67;6.67;;;;;;;;5108248;27;46630;-63
2022/11/19 02:30:49;;;;;;;;;7.33;7.00;;;;;;;;5091153;27;45454;-63
2022/11/19 02:33:24;;;;;;;;;11.33;10.33;;;;;;;;5088825;27;45518;-65
2022/11/19 02:35:53;;;;;;;;;10.33;8.67;;;;;;;;5094218;27;45696;-66
2022/11/19 02:38:33;;;;;;;;;8.33;8.33;;;;;;;;5109012;27;45480;-64
2022/11/19 02:41:32;;;;;;;;;8.00;7.00;;;;;;;;5093035;27;45462;-64
2022/11/19 02:44:57;;;;;;;;;12.00;7.33;;;;;;;;5094679;27;46305;-65
2022/11/19 02:46:36;;;;;;;;;9.67;8.00;;;;;;;;5099451;27;45937;-62
2022/11/19 02:49:02;;;;;;;;;7.67;7.67;;;;;;;;5095017;27;45404;-63
2022/11/19 02:51:27;;;;;;;;;9.67;7.33;;;;;;;;5093349;27;45824;-63
2022/11/19 02:53:53;;;;;;;;;4.00;2.33;;;;;;;;5106427;27;45607;-64
2022/11/19 02:56:37;;;;;;;;;11.00;8.00;;;;;;;;5106799;27;45783;-65
2022/11/19 03:04:31;;;;;;;;;8.33;7.00;;;;;;;;5106657;27;45751;-65
2022/11/19 03:06:58;;;;;;;;;12.33;8.33;;;;;;;;5100519;27;45686;-65
2022/11/19 03:09:24;;;;;;;;;8.00;6.00;;;;;;;;5092630;27;46257;-64
2022/11/19 03:11:55;;;;;;;;;14.00;9.00;;;;;;;;5085674;27;45415;-63
2022/11/19 03:17:36;;;;;;;;;10.33;10.33;;;;;;;;5094763;27;45359;-70
2022/11/19 03:20:01;;;;;;;;;8.67;7.33;;;;;;;;5077707;27;45621;-69
2022/11/19 03:22:30;;;;;;;;;6.67;6.00;;;;;;;;5079913;27;45461;-69
2022/11/19 03:24:55;;;;;;;;;9.33;7.33;;;;;;;;5083715;27;45512;-68
2022/11/19 03:27:24;;;;;;;;;11.00;8.00;;;;;;;;5086934;27;45655;-70
2022/11/19 03:29:52;;;;;;;;;8.00;8.00;;;;;;;;5080643;27;45780;-69
2022/11/19 03:32:21;;;;;;;;;10.33;10.00;;;;;;;;5078762;27;45460;-70
2022/11/19 03:34:49;;;;;;;;;13.00;9.00;;;;;;;;5091405;27;45391;-68
2022/11/19 03:37:17;;;;;;;;;11.67;8.00;;;;;;;;5085093;27;45826;-68
2022/11/19 03:39:43;;;;;;;;;9.67;7.67;;;;;;;;5088831;27;46237;-69
2022/11/19 03:42:11;;;;;;;;;8.33;8.00;;;;;;;;5094473;27;45655;-69
2022/11/19 03:44:43;;;;;;;;;9.67;9.67;;;;;;;;5092805;27;45838;-68
2022/11/19 03:47:13;;;;;;;;;14.33;10.00;;;;;;;;5094063;27;46101;-69
2022/11/19 03:49:41;;;;;;;;;13.00;9.33;;;;;;;;5080639;27;46360;-67
2022/11/19 03:52:11;;;;;;;;;10.67;10.67;;;;;;;;5079651;27;45731;-69
2022/11/19 03:54:38;;;;;;;;;8.67;8.67;;;;;;;;5093208;27;45353;-69
2022/11/19 03:57:04;;;;;;;;;10.00;6.33;;;;;;;;5093807;27;45603;-64
2022/11/19 03:59:29;;;;;;;;;9.00;7.00;;;;;;;;5078454;27;45589;-64
2022/11/19 04:01:57;;;;;;;;;11.33;9.33;;;;;;;;5077514;27;45643;-69
2022/11/19 04:04:37;;;;;;;;;6.67;6.67;;;;;;;;5087126;27;45344;-69
2022/11/19 04:07:04;;;;;;;;;9.67;8.33;;;;;;;;5079442;27;45574;-69
2022/11/19 04:09:29;;;;;;;;;8.00;8.00;;;;;;;;5079613;27;46372;-63
2022/11/19 04:11:54;;;;;;;;;9.00;6.00;;;;;;;;5078322;27;45415;-65
2022/11/19 04:14:19;;;;;;;;;8.00;5.67;;;;;;;;5088385;27;45549;-63
2022/11/19 04:16:45;;;;;;;;;6.33;6.00;;;;;;;;5086065;27;45651;-64
2022/11/19 04:19:10;;;;;;;;;6.00;6.00;;;;;;;;5080896;27;46947;-64
2022/11/19 04:21:36;;;;;;;;;5.33;5.33;;;;;;;;5085482;27;45401;-63
2022/11/19 04:24:01;;;;;;;;;6.00;6.00;;;;;;;;5088314;27;45824;-63
2022/11/19 04:26:27;;;;;;;;;6.67;6.67;;;;;;;;5078234;27;45884;-62
2022/11/19 04:28:52;;;;;;;;;7.00;7.00;;;;;;;;5086627;27;46670;-70
2022/11/19 04:31:17;;;;;;;;;5.33;5.33;;;;;;;;5077542;27;45871;-69
2022/11/19 04:33:42;;;;;;;;;6.33;6.33;;;;;;;;5090751;27;45765;-69
2022/11/19 04:36:07;;;;;;;;;6.00;6.00;;;;;;;;5078589;27;47075;-68
2022/11/19 04:38:33;;;;;;;;;5.00;5.00;;;;;;;;5080636;27;46273;-68
2022/11/19 04:40:58;;;;;;;;;9.00;7.33;;;;;;;;5085422;27;45782;-69
2022/11/19 04:43:24;;;;;;;;;4.00;4.00;;;;;;;;5091196;27;45452;-68
2022/11/19 04:45:49;;;;;;;;;7.33;5.00;;;;;;;;5087622;27;45408;-68
2022/11/19 04:48:14;;;;;;;;;9.33;6.00;;;;;;;;5089798;27;45759;-68
2022/11/19 04:50:40;;;;;;;;;5.33;5.33;;;;;;;;5087123;27;45608;-68
2022/11/19 04:53:05;;;;;;;;;6.67;4.33;;;;;;;;5091642;27;45549;-68
2022/11/19 04:55:31;;;;;;;;;10.00;9.00;;;;;;;;5090245;27;45410;-69
2022/11/19 04:57:56;;;;;;;;;8.00;5.67;;;;;;;;5090558;27;46441;-67
2022/11/19 05:00:21;;;;;;;;;6.33;5.00;;;;;;;;5087795;27;45810;-69
2022/11/19 05:02:46;;;;;;;;;6.33;5.33;;;;;;;;5086599;27;45404;-68
2022/11/19 05:05:12;;;;;;;;;9.33;7.00;;;;;;;;5072929;27;45570;-64
2022/11/19 05:07:37;;;;;;;;;7.33;7.00;;;;;;;;5079476;27;46588;-64
2022/11/19 05:10:03;;;;;;;;;6.33;5.67;;;;;;;;5077657;27;45500;-64
2022/11/19 05:12:28;;;;;;;;;6.33;5.67;;;;;;;;5074642;27;45738;-64
2022/11/19 05:14:53;;;;;;;;;8.67;6.67;;;;;;;;5085129;27;47418;-64
2022/11/19 05:17:19;;;;;;;;;8.00;5.67;;;;;;;;5078541;27;48043;-63
2022/11/19 05:19:44;;;;;;;;;10.33;7.67;;;;;;;;5079570;27;45565;-63
2022/11/19 05:22:09;;;;;;;;;5.67;5.33;;;;;;;;5080701;27;45589;-70
2022/11/19 05:24:34;;;;;;;;;9.67;6.67;;;;;;;;5076914;27;45480;-69
2022/11/19 05:27:00;;;;;;;;;9.33;7.00;;;;;;;;5081595;27;45264;-69
2022/11/19 05:29:25;;;;;;;;;5.00;5.00;;;;;;;;5079498;27;45279;-64
2022/11/19 05:31:50;;;;;;;;;6.00;6.00;;;;;;;;5084902;27;45425;-63
2022/11/19 05:34:15;;;;;;;;;7.00;5.33;;;;;;;;5085875;27;45705;-64
2022/11/19 05:36:41;;;;;;;;;11.67;7.00;;;;;;;;5077483;27;45757;-63
2022/11/19 05:39:06;;;;;;;;;7.00;5.00;;;;;;;;5072877;27;45872;-64
2022/11/19 05:41:32;;;;;;;;;10.00;7.33;;;;;;;;5088484;27;45758;-69
2022/11/19 05:43:57;;;;;;;;;7.00;7.00;;;;;;;;5079379;27;45699;-71
2022/11/19 05:46:22;;;;;;;;;9.00;7.00;;;;;;;;5086247;27;45512;-70
2022/11/19 05:48:47;;;;;;;;;10.33;6.33;;;;;;;;5083859;27;45723;-64
2022/11/19 05:51:14;;;;;;;;;9.00;8.00;;;;;;;;5080068;27;45884;-64
2022/11/19 05:53:39;;;;;;;;;11.00;7.00;;;;;;;;5075438;27;46388;-70
2022/11/19 05:56:05;;;;;;;;;7.33;6.00;;;;;;;;5078477;27;47050;-70
2022/11/19 05:58:30;;;;;;;;;6.67;4.67;;;;;;;;5080927;27;45506;-69
2022/11/19 06:00:57;;;;;;;;;9.00;7.00;;;;;;;;5082390;27;45525;-69
2022/11/19 06:03:22;;;;;;;;;8.33;6.67;;;;;;;;5086968;27;45539;-70
2022/11/19 06:05:47;;;;;;;;;6.00;6.00;;;;;;;;5085118;27;46046;-70
2022/11/19 06:08:13;;;;;;;;;8.67;8.33;;;;;;;;5078109;27;45329;-71
2022/11/19 06:10:38;;;;;;;;;7.67;5.67;;;;;;;;5084090;27;45674;-70
2022/11/19 06:13:03;;;;;;;;;6.00;5.00;;;;;;;;5078241;27;45426;-70
2022/11/19 06:15:28;;;;;;;;;8.67;7.00;;;;;;;;5078226;27;45990;-69
2022/11/19 06:17:54;;;;;;;;;6.00;4.00;;;;;;;;5074467;27;45498;-70
2022/11/19 06:20:20;;;;;;;;;8.00;7.00;;;;;;;;5077459;27;45839;-64
2022/11/19 06:22:45;;;;;;;;;7.00;5.67;;;;;;;;5084201;27;45873;-65
2022/11/19 06:25:10;;;;;;;;;7.67;6.00;;;;;;;;5083699;27;45665;-65
2022/11/19 06:27:35;;;;;;;;;9.00;6.33;;;;;;;;5077989;27;45653;-68
2022/11/19 06:30:01;;;;;;;;;7.67;7.33;;;;;;;;5083696;27;45805;-63
2022/11/19 06:32:26;;;;;;;;;7.33;7.00;;;;;;;;5081462;27;45494;-67
2022/11/19 06:34:51;;;;;;;;;9.33;7.00;;;;;;;;5075504;27;45731;-65
2022/11/19 06:37:17;;;;;;;;;8.33;7.00;;;;;;;;5080934;27;45964;-68
2022/11/19 06:39:42;;;;;;;;;9.00;6.00;;;;;;;;5074286;27;45529;-71
2022/11/19 06:44:51;;;;;;;;;8.00;7.00;;;;;;;;5078020;27;46032;-70
2022/11/19 06:47:16;;;;;;;;;9.33;8.33;;;;;;;;5079598;27;45495;-64
2022/11/19 06:49:42;;;;;;;;;3.33;3.33;;;;;;;;5085635;27;45731;-71
2022/11/19 06:52:07;;;;;;;;;11.33;9.67;;;;;;;;5073974;27;46763;-71
2022/11/19 06:54:32;;;;;;;;;11.00;8.33;;;;;;;;5087781;27;45540;-71
2022/11/19 06:56:57;;;;;;;;;13.00;8.33;;;;;;;;5082038;27;45752;-70
2022/11/19 06:59:23;;;;;;;;;10.00;8.00;;;;;;;;5081495;27;45562;-70
2022/11/19 07:01:48;;;;;;;;;10.67;10.00;;;;;;;;5073323;27;45511;-69
2022/11/19 07:04:13;;;;;;;;;11.33;11.33;;;;;;;;5079702;27;46710;-70
2022/11/19 07:06:38;;;;;;;;;9.00;8.00;;;;;;;;5076009;27;45747;-63
2022/11/19 07:09:04;;;;;;;;;10.67;8.67;;;;;;;;5085831;27;45682;-64
2022/11/19 07:11:29;;;;;;;;;11.00;9.00;;;;;;;;5085622;27;45657;-64
2022/11/19 07:13:56;;;;;;;;;8.33;8.33;;;;;;;;5079417;27;46625;-65
2022/11/19 07:16:21;;;;;;;;;10.00;8.67;;;;;;;;5083509;27;45722;-65
2022/11/19 07:18:46;;;;;;;;;8.00;8.00;;;;;;;;5081861;27;45481;-64
2022/11/19 07:23:49;;;;;;;;;9.33;9.33;;;;;;;;5087506;27;45639;-79
2022/11/19 07:26:14;;;;;;;;;12.00;9.67;;;;;;;;5091801;27;45500;-80
2022/11/19 07:28:40;;;;;;;;;10.00;8.00;;;;;;;;5093568;27;45902;-78
2022/11/19 07:31:05;;;;;;;;;18.33;15.00;;;;;;;;5075156;27;46488;-79
2022/11/19 07:33:31;;;;;;;;;13.00;12.00;;;;;;;;5096865;27;45449;-78
2022/11/19 07:35:57;;;;;;;;;9.67;9.00;;;;;;;;5075199;27;45693;-80
2022/11/19 07:38:22;;;;;;;;;10.67;10.33;;;;;;;;5096070;27;46138;-79
2022/11/19 07:40:52;;;;;;;;;15.33;15.33;;;;;;;;5098173;27;45525;-79
2022/11/19 07:43:17;;;;;;;;;16.67;12.67;;;;;;;;5070867;28;48676;-78
2022/11/19 07:45:43;;;;;;;;;14.33;13.00;;;;;;;;5088534;27;45545;-79
2022/11/19 07:48:08;;;;;;;;;17.67;14.67;;;;;;;;5082983;27;45692;-78
2022/11/19 07:50:33;;;;;;;;;13.33;12.00;;;;;;;;5075623;27;45940;-77
2022/11/19 07:52:59;;;;;;;;;13.00;13.00;;;;;;;;5097329;27;45630;-79
2022/11/19 07:55:24;;;;;;;;;15.67;14.67;;;;;;;;5094434;27;45583;-79
2022/11/19 07:57:51;;;;;;;;;20.67;17.33;;;;;;;;5075931;27;45633;-79
2022/11/19 08:00:17;;;;;;;;;13.67;13.67;;;;;;;;5094791;27;45490;-80
2022/11/19 08:02:42;;;;;;;;;15.00;11.00;;;;;;;;5092902;27;45387;-79
2022/11/19 08:05:07;;;;;;;;;12.33;10.67;;;;;;;;5092457;27;45843;-78
2022/11/19 08:07:33;;;;;;;;;15.33;13.33;;;;;;;;5094472;27;45418;-78
2022/11/19 08:09:58;;;;;;;;;12.33;11.00;;;;;;;;5092266;27;45476;-79
2022/11/19 08:12:23;;;;;;;;;13.00;12.67;;;;;;;;5090771;27;45912;-82
2022/11/19 08:14:49;;;;;;;;;18.33;17.00;;;;;;;;5072772;27;45438;-78
2022/11/19 08:19:58;;;;;;;;;15.00;14.67;;;;;;;;5091747;27;45755;-79
2022/11/19 08:22:23;;;;;;;;;22.00;17.67;;;;;;;;5077988;27;45742;-82
2022/11/19 08:24:49;;;;;;;;;17.33;15.00;;;;;;;;5075177;27;45551;-82
2022/11/19 08:27:14;;;;;;;;;15.00;11.67;;;;;;;;5084694;27;45436;-81
2022/11/19 08:29:39;;;;;;;;;13.00;11.00;;;;;;;;5086169;27;45418;-79
2022/11/19 08:32:05;;;;;;;;;18.33;15.67;;;;;;;;5076173;27;47305;-80
2022/11/19 08:34:31;;;;;;;;;18.00;13.33;;;;;;;;5070828;27;45381;-82
2022/11/19 08:36:56;;;;;;;;;17.00;15.33;;;;;;;;5084022;27;44874;-80
2022/11/19 08:39:21;;;;;;;;;14.33;13.00;;;;;;;;5091417;27;45437;-79
2022/11/19 08:44:30;;;;;;;;;17.00;13.00;;;;;;;;5080790;27;45425;-82
2022/11/19 08:46:56;;;;;;;;;13.00;13.00;;;;;;;;5073397;27;45421;-81
2022/11/19 08:49:21;;;;;;;;;22.00;15.67;;;;;;;;5076481;27;45453;-80
2022/11/19 08:51:46;;;;;;;;;20.67;15.67;;;;;;;;5092255;27;45910;-82
2022/11/19 08:54:12;;;;;;;;;15.67;13.00;;;;;;;;5087913;27;45503;-79
2022/11/19 08:56:37;;;;;;;;;13.00;12.00;;;;;;;;5081490;27;45872;-79
2022/11/19 08:59:02;;;;;;;;;15.67;13.33;;;;;;;;5057766;27;45591;-83
2022/11/19 09:01:28;;;;;;;;;14.00;12.67;;;;;;;;5079670;27;45460;-83
2022/11/19 09:03:53;;;;;;;;;19.33;16.00;;;;;;;;5085093;27;45444;-80
2022/11/19 09:06:19;;;;;;;;;19.67;12.00;;;;;;;;5086630;27;45526;-79
2022/11/19 09:08:44;;;;;;;;;10.33;10.33;;;;;;;;5086741;27;46484;-81
2022/11/19 09:11:14;;;;;;;;;14.33;12.00;;;;;;;;5095319;27;46485;-81
2022/11/19 09:13:39;;;;;;;;;17.00;14.00;;;;;;;;5074524;27;45816;-82
2022/11/19 09:16:05;;;;;;;;;13.67;11.33;;;;;;;;5087255;27;45795;-80
2022/11/19 09:18:31;;;;;;;;;12.67;11.33;;;;;;;;5089500;27;45419;-82
2022/11/19 09:20:57;;;;;;;;;16.00;14.67;;;;;;;;5072563;27;47886;-81
2022/11/19 09:23:23;;;;;;;;;13.33;11.00;;;;;;;;5093122;27;45772;-81
2022/11/19 09:25:58;;;;;;;;;15.33;12.33;;;;;;;;5094481;27;45997;-82
2022/11/19 09:28:24;;;;;;;;;16.00;12.33;;;;;;;;5103523;27;45788;-80
2022/11/19 09:31:00;;;;;;;;;17.33;15.67;;;;;;;;5075476;27;46905;-81
2022/11/19 09:33:25;;;;;;;;;12.67;12.00;;;;;;;;5085622;27;45855;-82
2022/11/19 09:35:51;;;;;;;;;12.33;12.33;;;;;;;;5097792;27;45741;-80
2022/11/19 09:38:16;;;;;;;;;13.67;13.00;;;;;;;;5093694;27;45668;-80
2022/11/19 09:40:45;;;;;;;;;12.00;11.00;;;;;;;;5073978;27;47588;-78
2022/11/19 09:43:16;;;;;;;;;16.00;13.67;;;;;;;;5075987;27;45411;-79
2022/11/19 09:45:52;;;;;;;;;14.00;12.67;;;;;;;;5093207;27;45514;-81
2022/11/19 09:48:22;;;;;;;;;17.67;14.00;;;;;;;;5089495;27;45748;-80
2022/11/19 09:50:53;;;;;;;;;15.00;12.67;;;;;;;;5072926;27;47288;-81
2022/11/19 09:53:19;;;;;;;;;11.33;10.00;;;;;;;;5071489;27;45719;-79
2022/11/19 09:55:46;;;;;;;;;13.00;12.67;;;;;;;;5081460;27;45725;-79
2022/11/19 09:58:17;;;;;;;;;12.00;10.33;;;;;;;;5089479;27;45853;-78
2022/11/19 10:00:43;;;;;;;;;14.67;13.00;;;;;;;;5071640;27;47861;-77
2022/11/19 10:03:16;;;;;;;;;16.00;13.33;;;;;;;;5089670;27;45457;-76
2022/11/19 10:05:41;;;;;;;;;13.33;11.33;;;;;;;;5080339;27;45421;-80
2022/11/19 10:08:16;;;;;;;;;13.00;11.67;;;;;;;;5093482;27;45379;-78
2022/11/19 10:10:45;;;;;;;;;8.00;6.33;;;;;;;;5098819;27;46078;-80
2022/11/19 10:13:17;;;;;;;;;12.67;11.00;;;;;;;;5092566;27;45777;-81
2022/11/19 10:15:42;;;;;;;;;14.33;14.00;;;;;;;;5079820;27;45842;-83
2022/11/19 10:18:20;;;;;;;;;16.67;12.67;;;;;;;;5091396;27;45731;-82
2022/11/19 10:20:58;;;;;;;;;15.33;12.67;;;;;;;;5089122;27;47187;-81
2022/11/19 10:23:30;;;;;;;;;12.67;10.33;;;;;;;;5096605;27;45903;-82
2022/11/19 10:25:59;;;;;;;;;10.67;8.67;;;;;;;;5096679;27;45713;-80
2022/11/19 10:28:28;;;;;;;;;12.00;11.00;;;;;;;;5072965;27;47147;-79
2022/11/19 10:30:57;;;;;;;;;17.67;14.33;;;;;;;;5095718;27;45714;-82
2022/11/19 10:33:43;;;;;;;;;16.33;14.67;;;;;;;;5109652;27;45921;-80
2022/11/19 10:36:15;;;;;;;;;14.00;11.00;;;;;;;;5089497;27;45804;-80
2022/11/19 10:39:01;;;;;;;;;14.67;11.00;;;;;;;;5074087;27;46216;-77
2022/11/19 10:41:53;;;;;;;;;10.00;9.67;;;;;;;;5091214;27;46973;-77
2022/11/19 10:44:37;;;;;;;;;10.00;9.00;;;;;;;;5068567;27;45490;-78
2022/11/19 10:47:28;;;;;;;;;11.67;11.67;;;;;;;;5078932;27;46193;-80
2022/11/19 10:49:54;;;;;;;;;10.33;9.33;;;;;;;;5053644;27;45731;-80
2022/11/19 10:52:22;;;;;;;;;9.67;9.33;;;;;;;;5094694;27;46129;-79
2022/11/19 10:54:52;;;;;;;;;14.33;10.00;;;;;;;;5095443;27;45775;-79
2022/11/19 10:57:18;;;;;;;;;11.33;9.33;;;;;;;;5089664;27;45465;-81
2022/11/19 10:59:43;;;;;;;;;15.00;10.33;;;;;;;;5077654;27;45577;-82
2022/11/19 11:02:27;;;;;;;;;13.00;10.00;;;;;;;;5081364;27;46102;-79
2022/11/19 11:05:05;;;;;;;;;15.33;13.00;;;;;;;;5095329;27;45718;-79
2022/11/19 11:07:54;;;;;;;;;21.67;19.33;;;;;;;;5092007;27;45799;-79
2022/11/19 11:10:29;;;;;;;;;14.67;12.67;;;;;;;;5089958;27;45701;-80
2022/11/19 11:15:48;;;;;;;;;37.67;31.00;;;;;;;;5079265;27;45811;-78
2022/11/19 11:18:14;;;;;;;;;40.67;37.00;;;;;;;;5091297;27;45574;-80
2022/11/19 11:20:47;;;;;;;;;62.25;49.75;;;;;;;;5073507;27;46144;-79
2022/11/19 11:23:13;;;;;;;;;13.33;12.00;;;;;;;;5094552;27;46144;-78
2022/11/19 11:25:39;;;;;;;;;80.75;59.75;;;;;;;;5079601;27;45770;-78
2022/11/19 11:28:12;;;;;;;;;28.67;26.67;;;;;;;;5073432;27;45698;-78
2022/11/19 11:30:50;;;;;;;;;16.33;14.00;;;;;;;;5073918;27;45505;-78
2022/11/19 11:33:36;;;;;;;;;19.00;17.00;;;;;;;;5084809;27;46109;-79
2022/11/19 11:36:28;;;;;;;;;16.33;10.33;;;;;;;;5089997;27;46251;-80
2022/11/19 11:39:00;;;;;;;;;13.00;8.67;;;;;;;;5060838;27;45778;-79
2022/11/19 11:41:34;;;;;;;;;13.67;13.67;;;;;;;;5093720;27;45465;-79
2022/11/19 11:44:02;;;;;;;;;12.00;10.00;;;;;;;;5103938;27;45620;-80
2022/11/19 11:46:36;;;;;;;;;15.00;12.00;;;;;;;;5088428;27;45889;-79
2022/11/19 11:49:02;;;;;;;;;10.00;9.00;;;;;;;;5069146;27;45965;-82
2022/11/19 11:51:34;;;;;;;;;13.33;10.33;;;;;;;;5068295;27;46038;-81
2022/11/19 11:54:04;;;;;;;;;22.00;14.33;;;;;;;;5067461;27;47603;-81
2022/11/19 11:56:29;;;;;;;;;27.67;23.00;;;;;;;;5078487;27;45796;-81
2022/11/19 11:59:11;;;;;;;;;33.67;29.00;;;;;;;;5077951;27;45841;-80
2022/11/19 12:01:39;;;;;;;;;17.67;13.67;;;;;;;;5077865;27;45860;-80
2022/11/19 12:04:10;;;;;;;;;34.67;29.67;;;;;;;;5079618;27;47033;-80
2022/11/19 12:06:44;;;;;;;;;70.33;54.00;;;;;;;;5062951;27;46001;-80
2022/11/19 12:09:09;;;;;;;;;54.50;42.25;;;;;;;;5079534;27;45870;-81
2022/11/19 12:11:52;;;;;;;;;43.00;34.67;;;;;;;;5072828;27;46494;-79
2022/11/19 12:14:21;;;;;;;;;42.67;34.67;;;;;;;;5078874;27;46229;-80
2022/11/19 12:16:59;;;;;;;;;8.33;7.00;;;;;;;;5089425;27;45842;-80
2022/11/19 12:19:30;;;;;;;;;30.67;24.00;;;;;;;;5065988;27;45578;-79
2022/11/19 12:21:55;;;;;;;;;17.67;12.00;;;;;;;;5084539;27;45489;-82
2022/11/19 12:24:29;;;;;;;;;12.00;10.00;;;;;;;;5094458;27;45878;-79
2022/11/19 12:27:18;;;;;;;;;8.67;8.00;;;;;;;;5073697;27;45587;-78
2022/11/19 12:29:46;;;;;;;;;8.00;6.67;;;;;;;;5089388;27;45656;-82
2022/11/19 12:32:18;;;;;;;;;7.67;7.67;;;;;;;;5090068;27;45345;-82
2022/11/19 12:34:43;;;;;;;;;7.00;7.00;;;;;;;;5079879;27;48271;-82
2022/11/19 12:37:30;;;;;;;;;7.33;4.67;;;;;;;;5083789;27;45502;-81
2022/11/19 12:40:01;;;;;;;;;7.00;5.67;;;;;;;;5089919;27;45801;-80
2022/11/19 12:42:42;;;;;;;;;19.00;15.67;;;;;;;;5085473;27;46563;-82
2022/11/19 12:45:08;;;;;;;;;3.67;3.67;;;;;;;;5079502;27;46304;-82
2022/11/19 12:47:33;;;;;;;;;16.33;16.00;;;;;;;;5083711;27;45929;-82
2022/11/19 12:50:22;;;;;;;;;6.33;5.00;;;;;;;;5085831;27;45407;-82
2022/11/19 12:53:09;;;;;;;;;14.00;10.67;;;;;;;;5084678;27;46153;-82
2022/11/19 12:55:40;;;;;;;;;7.00;7.00;;;;;;;;5087988;27;45739;-82
2022/11/19 12:58:22;;;;;;;;;7.00;5.00;;;;;;;;5089665;27;45568;-82
2022/11/19 13:00:56;;;;;;;;;8.33;6.67;;;;;;;;5069346;27;45591;-83
2022/11/19 13:03:25;;;;;;;;;7.67;5.33;;;;;;;;5081059;27;45583;-82
2022/11/19 13:05:51;;;;;;;;;9.00;6.67;;;;;;;;5070665;27;47162;-84
2022/11/19 13:08:31;;;;;;;;;10.00;7.00;;;;;;;;5088101;27;45602;-81
2022/11/19 13:11:18;;;;;;;;;3.00;3.00;;;;;;;;5070363;27;45394;-81
2022/11/19 13:13:52;;;;;;;;;7.33;5.00;;;;;;;;5069419;27;46125;-83
2022/11/19 13:16:27;;;;;;;;;8.33;4.00;;;;;;;;5076177;27;45504;-83
2022/11/19 13:19:03;;;;;;;;;7.00;4.33;;;;;;;;5075801;27;45805;-83
2022/11/19 13:21:35;;;;;;;;;9.00;6.33;;;;;;;;5103396;27;45653;-85
2022/11/19 13:24:06;;;;;;;;;3.00;2.33;;;;;;;;5098032;27;45329;-82
2022/11/19 13:26:34;;;;;;;;;2.67;2.67;;;;;;;;5100599;27;45562;-83
2022/11/19 13:29:26;;;;;;;;;4.67;3.33;;;;;;;;5101392;27;45566;-84
2022/11/19 13:31:56;;;;;;;;;5.00;4.00;;;;;;;;5103903;27;45512;-84
2022/11/19 13:34:33;;;;;;;;;4.67;3.33;;;;;;;;5101999;27;45426;-83
2022/11/19 13:37:10;;;;;;;;;2.67;2.67;;;;;;;;5106038;27;45975;-83
2022/11/19 13:39:39;;;;;;;;;5.33;5.33;;;;;;;;5086858;27;45364;-82
2022/11/19 13:44:57;;;;;;;;;3.00;1.00;;;;;;;;5098389;27;45346;-82
2022/11/19 13:47:25;;;;;;;;;5.67;4.33;;;;;;;;5080195;27;46405;-81
2022/11/19 13:49:56;;;;;;;;;3.33;1.67;;;;;;;;5079164;27;45386;-82
2022/11/19 13:52:31;;;;;;;;;5.67;3.33;;;;;;;;5093397;27;45384;-83
2022/11/19 13:55:00;;;;;;;;;3.33;2.00;;;;;;;;5091133;27;45620;-83
2022/11/19 13:57:36;;;;;;;;;1.00;1.00;;;;;;;;5085731;27;45377;-79
2022/11/19 14:00:20;;;;;;;;;2.00;2.00;;;;;;;;5076883;27;45823;-80
2022/11/19 14:03:06;;;;;;;;;3.33;3.00;;;;;;;;5089406;27;45455;-81
2022/11/19 14:05:40;;;;;;;;;3.00;3.00;;;;;;;;5114810;27;45718;-80
2022/11/19 14:08:05;;;;;;;;;3.00;3.00;;;;;;;;5083977;27;45293;-80
2022/11/19 14:10:35;;;;;;;;;4.00;2.00;;;;;;;;5096737;27;44677;-79
2022/11/19 14:13:06;;;;;;;;;3.33;3.33;;;;;;;;5104400;27;45887;-80
2022/11/19 14:27:22;;;;;;;;;1.00;1.00;;;;;;;;5088857;27;45605;-78
2022/11/19 14:29:47;;;;;;;;;2.00;2.00;;;;;;;;5095839;27;47068;-83
2022/11/19 14:32:17;;;;;;;;;0.67;0.67;;;;;;;;5104654;27;44799;-81
2022/11/19 14:35:06;;;;;;;;;1.67;0.67;;;;;;;;5090050;27;44814;-82
2022/11/19 14:37:40;;;;;;;;;1.67;0.67;;;;;;;;5101416;27;44822;-83
2022/11/19 14:40:11;;;;;;;;;3.33;1.67;;;;;;;;5103190;27;46547;-82
2022/11/19 14:44:07;;;;;;;;;1.33;1.00;;;;;;;;5103419;27;45339;-81
2022/11/19 14:46:03;;;;;;;;;2.00;0.67;;;;;;;;5096494;27;44811;-81
2022/11/19 14:48:33;;;;;;;;;1.00;0.00;;;;;;;;5073513;27;46116;-78
2022/11/19 14:51:07;;;;;;;;;2.67;1.00;;;;;;;;5087646;27;45501;-78
2022/11/19 14:53:35;;;;;;;;;1.00;0.67;;;;;;;;5089530;27;45944;-78
2022/11/19 14:56:08;;;;;;;;;2.00;2.00;;;;;;;;5090435;27;45891;-80
2022/11/19 14:58:33;;;;;;;;;1.67;1.00;;;;;;;;5089615;27;45848;-80
2022/11/19 15:01:06;;;;;;;;;0.67;0.67;;;;;;;;5089720;27;46062;-80
2022/11/19 15:03:32;;;;;;;;;1.00;0.67;;;;;;;;5092265;27;45855;-80
2022/11/19 15:06:01;;;;;;;;;1.67;1.33;;;;;;;;5090573;27;46310;-79
2022/11/19 15:08:28;;;;;;;;;0.67;0.67;;;;;;;;5089728;27;45496;-79
2022/11/19 15:11:05;;;;;;;;;0.00;0.00;;;;;;;;5074383;27;47386;-81
2022/11/19 15:13:35;;;;;;;;;0.00;0.00;;;;;;;;5092385;27;45909;-79
2022/11/19 15:16:18;;;;;;;;;1.67;1.00;;;;;;;;5092993;27;45790;-79
2022/11/19 15:18:43;;;;;;;;;3.67;0.33;;;;;;;;5088474;27;45991;-80